Time;durP1;ratioP1;P1;durP2;ratioP2;P2;SDS_P1;SDS_P2;PMS_P1;PMS_P2;Temp;Humidity;BMP_temperature;BMP_pressure;BME280_temperature;BME280_humidity;BME280_pressure;Samples;Min_cycle;Max_cycle;Signal;HPM_P1;HPM_P2
2022/01/31 00:00:39;;;;;;;1.00;0.53;;;2.30;99.90;;;;;;4974461;28;20193;-56
2022/01/31 00:03:05;;;;;;;0.80;0.50;;;2.30;99.90;;;;;;4974723;28;20181;-56
2022/01/31 00:05:31;;;;;;;0.70;0.47;;;2.40;99.90;;;;;;4974325;28;20185;-52
2022/01/31 00:07:57;;;;;;;1.60;0.53;;;2.40;99.90;;;;;;4974641;28;20204;-54
2022/01/31 00:10:30;;;;;;;1.33;0.60;;;2.40;99.90;;;;;;4974392;28;20583;-54
2022/01/31 00:13:03;;;;;;;1.23;0.57;;;2.30;99.90;;;;;;4976301;28;20204;-55
2022/01/31 00:15:30;;;;;;;2.17;0.70;;;2.30;99.90;;;;;;4993877;28;20203;-55
2022/01/31 00:17:56;;;;;;;0.93;0.50;;;2.30;99.90;;;;;;4993920;28;20551;-56
2022/01/31 00:20:21;;;;;;;0.43;0.33;;;2.30;99.90;;;;;;4993321;28;20184;-58
2022/01/31 00:22:47;;;;;;;0.50;0.33;;;2.30;99.90;;;;;;4993866;28;20224;-54
2022/01/31 00:25:13;;;;;;;0.30;0.30;;;2.30;99.90;;;;;;4976491;28;20187;-55
2022/01/31 00:27:39;;;;;;;0.47;0.30;;;2.20;99.90;;;;;;4993694;28;20551;-52
2022/01/31 00:30:06;;;;;;;0.50;0.30;;;2.20;99.90;;;;;;4993568;28;20216;-53
2022/01/31 00:32:32;;;;;;;0.60;0.30;;;2.20;99.90;;;;;;4993349;28;20194;-53
2022/01/31 00:34:58;;;;;;;1.57;0.60;;;2.20;99.90;;;;;;4993177;28;20188;-54
2022/01/31 00:37:24;;;;;;;2.40;0.97;;;2.20;99.90;;;;;;4993524;28;20173;-55
2022/01/31 00:39:51;;;;;;;1.47;0.50;;;2.30;99.90;;;;;;4993344;28;20222;-54
2022/01/31 00:42:16;;;;;;;2.03;0.53;;;2.40;99.90;;;;;;5008090;28;20206;-55
2022/01/31 00:45:13;;;;;;;1.50;0.60;;;2.50;99.90;;;;;;4995362;28;20221;-55
2022/01/31 00:47:32;;;;;;;1.17;0.60;;;2.60;99.90;;;;;;5011012;28;20200;-54
2022/01/31 00:50:12;;;;;;;1.00;0.60;;;2.60;99.90;;;;;;5012831;28;20688;-58
2022/01/31 00:52:41;;;;;;;1.87;0.60;;;2.70;99.90;;;;;;5012528;28;20545;-54
2022/01/31 00:55:09;;;;;;;0.83;0.50;;;2.80;99.90;;;;;;5012791;28;20714;-56
2022/01/31 00:57:35;;;;;;;1.20;0.53;;;2.80;99.90;;;;;;5012578;28;20635;-55
2022/01/31 01:00:02;;;;;;;0.83;0.60;;;2.80;99.90;;;;;;5012505;28;20224;-55
2022/01/31 01:02:30;;;;;;;0.83;0.40;;;2.80;99.90;;;;;;5012508;28;20203;-54
2022/01/31 01:04:55;;;;;;;1.13;0.60;;;2.80;99.90;;;;;;5012471;28;20194;-55
2022/01/31 01:07:22;;;;;;;4.47;0.70;;;2.80;99.90;;;;;;5012869;28;20183;-55
2022/01/31 01:09:48;;;;;;;1.07;0.40;;;2.80;99.90;;;;;;5012217;28;20231;-55
2022/01/31 01:12:17;;;;;;;1.33;0.40;;;2.70;99.90;;;;;;5012563;28;20184;-55
2022/01/31 01:14:43;;;;;;;1.80;0.60;;;2.70;99.90;;;;;;5012375;28;20378;-51
2022/01/31 01:17:09;;;;;;;0.77;0.50;;;2.70;99.90;;;;;;5012438;28;20194;-54
2022/01/31 01:19:36;;;;;;;3.30;0.60;;;2.60;99.90;;;;;;5012151;28;20186;-54
2022/01/31 01:22:03;;;;;;;1.00;0.60;;;2.60;99.90;;;;;;5012241;28;20270;-53
2022/01/31 01:24:28;;;;;;;0.93;0.60;;;2.60;99.90;;;;;;5012175;28;20181;-56
2022/01/31 01:26:54;;;;;;;0.67;0.40;;;2.60;99.90;;;;;;5012250;28;20179;-55
2022/01/31 01:29:20;;;;;;;1.53;0.30;;;2.50;99.90;;;;;;5012127;28;20549;-51
2022/01/31 01:31:48;;;;;;;2.83;0.70;;;2.50;99.90;;;;;;5011839;28;20591;-53
2022/01/31 01:34:15;;;;;;;1.17;0.50;;;2.50;99.90;;;;;;5012351;28;20198;-56
2022/01/31 01:36:43;;;;;;;2.17;0.50;;;2.50;99.90;;;;;;5011758;28;20190;-52
2022/01/31 01:39:09;;;;;;;1.10;0.57;;;2.50;99.90;;;;;;5012325;28;20183;-53
2022/01/31 01:41:34;;;;;;;1.10;0.40;;;2.50;99.90;;;;;;5003841;28;20180;-55
2022/01/31 01:44:00;;;;;;;0.63;0.40;;;2.50;99.90;;;;;;5012558;28;20266;-53
2022/01/31 01:46:26;;;;;;;1.13;0.40;;;2.50;99.90;;;;;;5012058;28;20183;-61
2022/01/31 01:48:52;;;;;;;1.17;0.30;;;2.60;99.90;;;;;;5012108;28;20175;-54
2022/01/31 01:51:18;;;;;;;0.63;0.20;;;2.50;99.90;;;;;;5011823;28;20647;-58
2022/01/31 01:53:44;;;;;;;1.00;0.33;;;2.50;99.90;;;;;;5012317;28;20711;-55
2022/01/31 01:56:10;;;;;;;1.47;0.57;;;2.40;99.90;;;;;;5016243;28;20366;-54
2022/01/31 01:58:41;;;;;;;0.73;0.30;;;2.30;99.90;;;;;;4998563;28;20219;-55
2022/01/31 02:01:08;;;;;;;1.37;0.40;;;2.30;99.90;;;;;;5015925;28;20199;-53
2022/01/31 02:03:36;;;;;;;0.30;0.20;;;2.20;99.90;;;;;;5015873;28;20189;-56
2022/01/31 02:06:03;;;;;;;2.80;0.40;;;2.20;99.90;;;;;;5015776;28;20180;-56
2022/01/31 02:08:39;;;;;;;0.93;0.30;;;2.10;99.90;;;;;;5015675;28;20278;-54
2022/01/31 02:11:06;;;;;;;0.60;0.37;;;2.10;99.90;;;;;;5015922;28;20194;-53
2022/01/31 02:13:35;;;;;;;0.80;0.40;;;2.10;99.90;;;;;;5009941;28;20536;-53
2022/01/31 02:16:01;;;;;;;1.30;0.60;;;2.00;99.90;;;;;;5015710;28;20643;-57
2022/01/31 02:18:29;;;;;;;1.70;0.57;;;2.00;99.90;;;;;;5015631;28;20228;-64
2022/01/31 02:20:55;;;;;;;1.30;0.70;;;2.10;99.90;;;;;;5015724;28;20551;-53
2022/01/31 02:23:22;;;;;;;1.87;0.87;;;2.10;99.90;;;;;;4997216;28;20191;-53
2022/01/31 02:26:05;;;;;;;1.43;0.70;;;2.10;99.90;;;;;;5015688;28;20188;-51
2022/01/31 02:28:34;;;;;;;1.77;0.43;;;2.10;99.90;;;;;;5015484;28;20175;-53
2022/01/31 02:31:00;;;;;;;0.90;0.60;;;2.00;99.90;;;;;;5015532;28;20212;-49
2022/01/31 02:33:27;;;;;;;21.37;0.93;;;1.70;99.90;;;;;;5015566;28;20190;-52
2022/01/31 02:35:56;;;;;;;11.17;0.93;;;1.10;99.90;;;;;;4997601;28;20215;-49
2022/01/31 02:38:22;;;;;;;4.90;0.57;;;0.70;99.90;;;;;;5015275;28;20177;-50
2022/01/31 02:40:50;;;;;;;1.07;0.30;;;0.60;99.90;;;;;;5007214;28;20661;-48
2022/01/31 02:43:24;;;;;;;0.40;0.30;;;0.60;99.90;;;;;;5015326;28;20238;-54
2022/01/31 02:45:50;;;;;;;1.90;0.40;;;0.60;99.90;;;;;;5014923;28;20275;-51
2022/01/31 02:48:20;;;;;;;0.83;0.40;;;0.60;99.90;;;;;;5015192;28;20184;-54
2022/01/31 02:50:45;;;;;;;0.70;0.30;;;0.70;99.90;;;;;;5015072;28;20222;-49
2022/01/31 02:55:47;;;;;;;0.40;0.30;;;0.70;99.90;;;;;;5014862;28;20285;-53
2022/01/31 02:58:15;;;;;;;0.53;0.40;;;0.60;99.90;;;;;;5015087;28;20188;-49
2022/01/31 03:00:41;;;;;;;0.63;0.43;;;0.60;99.90;;;;;;5015037;28;20217;-47
2022/01/31 03:03:07;;;;;;;2.90;0.50;;;0.50;99.90;;;;;;4996995;28;20197;-51
2022/01/31 03:05:33;;;;;;;0.37;0.30;;;0.60;99.90;;;;;;5014051;28;20223;-51
2022/01/31 03:07:59;;;;;;;0.73;0.30;;;0.60;99.90;;;;;;4997349;28;20188;-51
2022/01/31 03:10:26;;;;;;;2.53;0.60;;;0.70;99.90;;;;;;5014742;28;20221;-50
2022/01/31 03:12:51;;;;;;;1.60;0.40;;;0.70;99.90;;;;;;5013318;28;20205;-51
2022/01/31 03:15:17;;;;;;;1.23;0.60;;;0.70;99.90;;;;;;5010189;28;20628;-48
2022/01/31 03:17:47;;;;;;;0.30;0.23;;;0.80;99.90;;;;;;5014272;28;20189;-51
2022/01/31 03:20:16;;;;;;;1.63;0.50;;;0.80;99.90;;;;;;5014512;28;20203;-50
2022/01/31 03:22:42;;;;;;;3.00;0.73;;;0.80;99.90;;;;;;5013742;28;20274;-53
2022/01/31 03:25:09;;;;;;;1.20;0.47;;;0.80;99.90;;;;;;5014462;28;20197;-53
2022/01/31 03:27:34;;;;;;;2.77;0.70;;;0.80;99.90;;;;;;4996789;28;20634;-46
2022/01/31 03:30:00;;;;;;;3.17;0.80;;;0.80;99.90;;;;;;5014280;28;20213;-51
2022/01/31 03:32:26;;;;;;;2.23;1.10;;;0.80;99.90;;;;;;5014330;28;20180;-47
2022/01/31 03:34:52;;;;;;;1.43;0.90;;;0.80;99.90;;;;;;5014024;28;20188;-51
2022/01/31 03:37:17;;;;;;;3.00;1.10;;;0.70;99.90;;;;;;5013995;28;20190;-49
2022/01/31 03:39:43;;;;;;;3.47;1.10;;;0.70;99.90;;;;;;4993916;28;20332;-54
2022/01/31 03:42:09;;;;;;;3.33;1.00;;;0.70;99.90;;;;;;5008510;28;20542;-51
2022/01/31 03:44:35;;;;;;;4.07;1.00;;;0.70;99.90;;;;;;5013604;28;20190;-49
2022/01/31 03:47:01;;;;;;;3.87;1.17;;;0.80;99.90;;;;;;5014254;28;20183;-50
2022/01/31 03:49:26;;;;;;;2.43;1.33;;;0.80;99.90;;;;;;5013846;28;20215;-51
2022/01/31 03:51:52;;;;;;;2.30;1.00;;;0.90;99.90;;;;;;4996072;28;20643;-49
2022/01/31 03:54:18;;;;;;;5.20;1.47;;;0.90;99.90;;;;;;5013668;28;20184;-51
2022/01/31 03:56:45;;;;;;;2.33;0.80;;;1.00;99.90;;;;;;5013532;28;20204;-47
2022/01/31 03:59:11;;;;;;;4.17;1.00;;;1.00;99.90;;;;;;4996120;28;20205;-52
2022/01/31 04:01:36;;;;;;;2.80;0.87;;;1.00;99.90;;;;;;5013656;28;20186;-47
2022/01/31 04:04:02;;;;;;;2.10;1.20;;;1.10;99.90;;;;;;4996203;28;20598;-51
2022/01/31 04:06:28;;;;;;;6.27;0.80;;;1.10;99.90;;;;;;5014081;28;20213;-50
2022/01/31 04:08:53;;;;;;;1.73;0.70;;;1.10;99.90;;;;;;5013476;28;20277;-48
2022/01/31 04:11:19;;;;;;;3.20;1.03;;;1.10;99.90;;;;;;5013671;28;20212;-53
2022/01/31 04:13:45;;;;;;;2.27;1.00;;;1.10;99.90;;;;;;5007764;28;20182;-55
2022/01/31 04:16:11;;;;;;;3.33;0.50;;;1.10;99.90;;;;;;5013641;28;20682;-49
2022/01/31 04:18:37;;;;;;;5.70;1.20;;;1.10;99.90;;;;;;5012117;28;20548;-50
2022/01/31 04:21:02;;;;;;;5.30;1.20;;;1.10;99.90;;;;;;4995673;28;20199;-47
2022/01/31 04:23:29;;;;;;;3.67;0.97;;;1.00;99.90;;;;;;5012954;28;20196;-52
2022/01/31 04:26:03;;;;;;;2.63;1.13;;;1.00;99.90;;;;;;5013045;28;20203;-49
2022/01/31 04:28:39;;;;;;;8.47;1.30;;;0.90;99.90;;;;;;4995737;28;20547;-49
2022/01/31 04:33:37;;;;;;;2.40;1.03;;;0.90;99.90;;;;;;5012869;28;20259;-48
2022/01/31 04:36:03;;;;;;;5.88;1.00;;;0.90;99.90;;;;;;5012608;28;20405;-48
2022/01/31 04:38:29;;;;;;;1.77;0.80;;;0.90;99.90;;;;;;5012623;28;20185;-53
2022/01/31 04:40:55;;;;;;;2.77;1.27;;;0.80;99.90;;;;;;4983922;28;20193;-48
2022/01/31 04:43:21;;;;;;;2.87;1.00;;;0.80;99.90;;;;;;5008929;28;20180;-54
2022/01/31 04:45:48;;;;;;;1.97;1.10;;;0.80;99.90;;;;;;5012257;28;20632;-50
2022/01/31 04:48:19;;;;;;;6.33;1.23;;;0.80;99.90;;;;;;5012831;28;20185;-49
2022/01/31 04:50:46;;;;;;;4.03;1.13;;;0.80;99.90;;;;;;5012234;28;20217;-52
2022/01/31 04:53:13;;;;;;;2.20;1.00;;;0.80;99.90;;;;;;5012088;28;20195;-53
2022/01/31 04:55:40;;;;;;;3.10;1.27;;;0.90;99.90;;;;;;5011884;28;20578;-51
2022/01/31 04:58:06;;;;;;;4.93;1.47;;;1.00;99.90;;;;;;5012158;28;20184;-52
2022/01/31 05:00:33;;;;;;;1.97;0.63;;;1.00;99.90;;;;;;5012678;28;20209;-50
2022/01/31 05:02:59;;;;;;;5.83;1.10;;;1.10;99.90;;;;;;5012209;28;20181;-51
2022/01/31 05:05:24;;;;;;;6.40;1.20;;;1.10;99.90;;;;;;4978606;28;20247;-52
2022/01/31 05:07:53;;;;;;;4.13;1.10;;;1.10;99.90;;;;;;5012041;28;20537;-54
2022/01/31 05:10:19;;;;;;;4.67;1.37;;;1.10;99.90;;;;;;5012507;28;20687;-52
2022/01/31 05:12:45;;;;;;;7.07;1.23;;;1.10;99.90;;;;;;5011387;28;20198;-52
2022/01/31 05:15:11;;;;;;;5.80;1.77;;;1.10;99.90;;;;;;5012308;28;20629;-51
2022/01/31 05:17:36;;;;;;;3.57;1.00;;;1.10;99.90;;;;;;4994201;28;20195;-53
2022/01/31 05:20:04;;;;;;;17.47;2.63;;;1.10;99.90;;;;;;5011657;28;20190;-54
2022/01/31 05:22:30;;;;;;;2.30;1.40;;;1.10;99.90;;;;;;5011638;28;20265;-53
2022/01/31 05:24:55;;;;;;;5.83;1.67;;;1.10;99.90;;;;;;5010673;28;20270;-50
2022/01/31 05:27:21;;;;;;;1.10;0.83;;;1.10;99.90;;;;;;5011736;28;20565;-51
2022/01/31 05:29:47;;;;;;;3.70;1.40;;;1.20;99.90;;;;;;5010960;28;20641;-52
2022/01/31 05:32:13;;;;;;;5.77;1.97;;;1.20;99.90;;;;;;5011102;28;20199;-56
2022/01/31 05:34:39;;;;;;;3.77;1.10;;;1.20;99.90;;;;;;5010810;28;20180;-66
2022/01/31 05:37:05;;;;;;;5.63;1.27;;;1.20;99.90;;;;;;5011078;28;20672;-54
2022/01/31 05:39:30;;;;;;;5.13;1.50;;;1.20;99.90;;;;;;4992772;28;20203;-52
2022/01/31 05:41:56;;;;;;;4.43;1.20;;;1.10;99.90;;;;;;5003783;28;20180;-50
2022/01/31 05:44:24;;;;;;;4.30;1.37;;;1.10;99.90;;;;;;5010944;28;20182;-53
2022/01/31 05:46:50;;;;;;;5.80;1.57;;;1.10;99.90;;;;;;5010303;28;20653;-54
2022/01/31 05:49:17;;;;;;;4.33;1.60;;;1.20;99.90;;;;;;5010688;28;20200;-54
2022/01/31 05:52:04;;;;;;;7.20;1.70;;;1.20;99.90;;;;;;5010243;28;20212;-53
2022/01/31 05:54:32;;;;;;;6.83;1.60;;;1.20;99.90;;;;;;5010326;28;20661;-52
2022/01/31 05:56:59;;;;;;;5.33;1.67;;;1.20;99.90;;;;;;5009517;28;20279;-54
2022/01/31 05:59:26;;;;;;;11.03;2.00;;;1.20;99.90;;;;;;5010677;28;20190;-52
2022/01/31 06:01:52;;;;;;;12.73;2.20;;;1.20;99.90;;;;;;5009896;28;20192;-53
2022/01/31 06:04:18;;;;;;;13.17;3.50;;;1.20;99.90;;;;;;4992449;28;20195;-52
2022/01/31 06:06:44;;;;;;;6.80;2.00;;;1.20;99.90;;;;;;5010861;28;20178;-57
2022/01/31 06:09:09;;;;;;;10.07;2.57;;;1.30;99.90;;;;;;5010842;28;20181;-54
2022/01/31 06:11:35;;;;;;;10.33;4.20;;;1.40;99.90;;;;;;4993088;28;20263;-55
2022/01/31 06:14:02;;;;;;;9.47;3.43;;;1.30;99.90;;;;;;5004638;28;20229;-56
2022/01/31 06:16:29;;;;;;;9.77;2.80;;;1.30;99.90;;;;;;5010654;28;20243;-57
2022/01/31 06:18:55;;;;;;;9.17;2.40;;;1.30;99.90;;;;;;5010627;28;20187;-56
2022/01/31 06:21:22;;;;;;;5.67;2.30;;;1.30;99.90;;;;;;5010965;28;20228;-62
2022/01/31 06:23:47;;;;;;;6.33;1.93;;;1.40;99.90;;;;;;4991607;28;20198;-62
2022/01/31 06:26:13;;;;;;;3.93;1.73;;;1.40;99.90;;;;;;5009537;28;20206;-60
2022/01/31 06:28:40;;;;;;;5.47;1.57;;;1.50;99.90;;;;;;5010546;28;20275;-60
2022/01/31 06:31:06;;;;;;;9.83;3.17;;;1.50;99.90;;;;;;5006973;28;20234;-61
2022/01/31 06:33:32;;;;;;;12.93;2.83;;;1.50;99.90;;;;;;5003321;28;20195;-61
2022/01/31 06:35:59;;;;;;;6.20;2.33;;;1.60;99.90;;;;;;5005376;28;20546;-62
2022/01/31 06:38:25;;;;;;;7.37;3.23;;;1.60;99.90;;;;;;5009228;28;20183;-61
2022/01/31 06:40:51;;;;;;;5.80;3.17;;;1.70;99.90;;;;;;5002431;28;20187;-63
2022/01/31 06:43:17;;;;;;;12.20;2.97;;;1.70;99.90;;;;;;5001067;28;20181;-61
2022/01/31 06:45:43;;;;;;;8.17;3.00;;;1.80;99.90;;;;;;5012289;28;20183;-65
2022/01/31 06:48:09;;;;;;;13.50;4.20;;;1.80;99.90;;;;;;5018815;28;20226;-61
2022/01/31 06:50:35;;;;;;;13.43;3.90;;;1.80;99.90;;;;;;5023454;28;20667;-60
2022/01/31 06:53:02;;;;;;;19.90;5.70;;;1.80;99.90;;;;;;4993447;28;20204;-62
2022/01/31 06:55:29;;;;;;;15.73;5.13;;;1.90;99.90;;;;;;5011399;28;20226;-61
2022/01/31 06:57:56;;;;;;;16.63;5.40;;;2.00;99.90;;;;;;5006732;28;20249;-62
2022/01/31 07:00:22;;;;;;;10.37;3.70;;;2.10;99.90;;;;;;5013534;28;20215;-61
2022/01/31 07:02:49;;;;;;;14.73;5.30;;;2.10;99.90;;;;;;5000017;28;20667;-62
2022/01/31 07:05:16;;;;;;;11.63;4.50;;;2.10;99.90;;;;;;5013798;28;20244;-61
2022/01/31 07:07:43;;;;;;;15.30;6.07;;;2.10;99.90;;;;;;5007018;28;20246;-69
2022/01/31 07:10:09;;;;;;;11.83;4.40;;;2.20;99.90;;;;;;5013437;28;20640;-62
2022/01/31 07:12:39;;;;;;;15.67;5.27;;;2.10;99.90;;;;;;4999967;28;20188;-61
2022/01/31 07:15:07;;;;;;;11.13;5.40;;;2.10;99.90;;;;;;5011388;28;20186;-59
2022/01/31 07:17:35;;;;;;;10.00;5.00;;;2.20;99.90;;;;;;5000139;28;20192;-62
2022/01/31 07:20:05;;;;;;;12.40;3.97;;;2.10;99.90;;;;;;5013015;28;20227;-61
2022/01/31 07:22:37;;;;;;;7.43;3.43;;;2.20;99.90;;;;;;4999246;28;20225;-62
2022/01/31 07:25:19;;;;;;;8.80;4.23;;;2.20;99.90;;;;;;5013521;28;20662;-62
2022/01/31 07:27:45;;;;;;;16.83;5.87;;;2.40;99.90;;;;;;4999870;28;20190;-60
2022/01/31 07:30:11;;;;;;;9.63;5.13;;;2.40;99.90;;;;;;5013380;28;20207;-62
2022/01/31 07:32:41;;;;;;;10.60;5.10;;;2.60;99.90;;;;;;5000143;28;20187;-62
2022/01/31 07:35:10;;;;;;;16.80;5.87;;;2.60;99.90;;;;;;5013232;28;20197;-63
2022/01/31 07:37:36;;;;;;;15.60;6.57;;;2.80;99.90;;;;;;5011504;28;20191;-61
2022/01/31 07:40:04;;;;;;;14.33;5.70;;;2.90;99.90;;;;;;5013041;28;20187;-61
2022/01/31 07:42:29;;;;;;;9.33;4.60;;;3.00;99.90;;;;;;5013616;28;20246;-63
2022/01/31 07:44:56;;;;;;;9.60;4.07;;;3.00;99.90;;;;;;4994742;28;20522;-61
2022/01/31 07:47:22;;;;;;;11.53;4.50;;;3.10;99.90;;;;;;4995373;28;20182;-62
2022/01/31 07:49:50;;;;;;;10.77;4.60;;;3.10;99.90;;;;;;4995289;28;20209;-61
2022/01/31 07:52:16;;;;;;;8.67;3.47;;;3.10;99.90;;;;;;4994705;28;20198;-61
2022/01/31 07:54:43;;;;;;;11.90;3.90;;;3.20;99.90;;;;;;5007689;28;20231;-62
2022/01/31 07:57:09;;;;;;;8.07;4.40;;;3.30;99.90;;;;;;4993504;28;20278;-61
2022/01/31 07:59:35;;;;;;;12.70;4.33;;;3.30;99.90;;;;;;4993186;28;20279;-61
2022/01/31 08:02:01;;;;;;;7.80;3.10;;;3.30;99.90;;;;;;4992875;28;20287;-62
2022/01/31 08:04:26;;;;;;;7.60;2.97;;;3.10;99.90;;;;;;4956833;28;20614;-64
2022/01/31 08:06:52;;;;;;;16.50;3.53;;;3.00;99.90;;;;;;4992557;28;20262;-62
2022/01/31 08:09:18;;;;;;;9.50;3.00;;;3.00;99.90;;;;;;4993461;28;20294;-61
2022/01/31 08:11:44;;;;;;;11.20;3.87;;;3.00;99.90;;;;;;4992570;28;20215;-63
2022/01/31 08:14:10;;;;;;;11.47;3.00;;;3.00;99.90;;;;;;4992651;28;20191;-63
2022/01/31 08:16:38;;;;;;;7.30;2.43;;;3.10;99.90;;;;;;4992925;28;20195;-61
2022/01/31 08:19:07;;;;;;;5.17;2.30;;;3.10;99.90;;;;;;4992528;28;20214;-63
2022/01/31 08:21:34;;;;;;;6.47;2.00;;;3.20;99.90;;;;;;4992535;28;20190;-61
2022/01/31 08:24:00;;;;;;;6.53;2.20;;;3.40;99.90;;;;;;4992507;28;20230;-62
2022/01/31 08:26:26;;;;;;;2.57;1.47;;;3.80;99.90;;;;;;4992740;28;20184;-63
2022/01/31 08:29:02;;;;;;;19.73;2.93;;;4.10;99.90;;;;;;4992405;28;20181;-63
2022/01/31 08:31:32;;;;;;;37.60;5.30;;;4.20;99.90;;;;;;4992554;28;20266;-64
2022/01/31 08:36:34;;;;;;;13.93;2.27;;;4.40;98.80;;;;;;4993261;28;20186;-66
2022/01/31 08:39:08;;;;;;;46.77;6.13;;;4.50;97.40;;;;;;4992828;28;20169;-67
2022/01/31 08:41:41;;;;;;;5.07;1.53;;;4.70;97.40;;;;;;4974672;28;20629;-66
2022/01/31 08:44:08;;;;;;;11.13;2.20;;;4.70;96.90;;;;;;4992621;28;20177;-65
2022/01/31 08:46:40;;;;;;;84.47;8.23;;;4.80;96.10;;;;;;4992890;28;20191;-64
2022/01/31 08:49:10;;;;;;;4.97;1.60;;;4.80;96.40;;;;;;4975040;28;20530;-65
2022/01/31 08:51:37;;;;;;;7.00;1.50;;;4.70;96.00;;;;;;4992827;28;20204;-65
2022/01/31 08:54:07;;;;;;;23.33;2.83;;;4.70;95.70;;;;;;4992644;28;20192;-63
2022/01/31 08:56:39;;;;;;;5.17;1.63;;;4.50;95.00;;;;;;4992650;28;20180;-66
2022/01/31 08:59:06;;;;;;;5.17;1.70;;;4.60;95.60;;;;;;4992615;28;20169;-65
2022/01/31 09:01:32;;;;;;;4.73;1.40;;;4.80;95.50;;;;;;4992411;28;20236;-65
2022/01/31 09:04:01;;;;;;;7.67;1.70;;;4.90;94.70;;;;;;4991887;28;20178;-64
2022/01/31 09:06:33;;;;;;;5.13;1.63;;;4.80;94.40;;;;;;4975678;28;20608;-64
2022/01/31 09:09:00;;;;;;;6.50;1.65;;;4.80;94.50;;;;;;4992575;28;20177;-64
2022/01/31 09:11:27;;;;;;;3.63;1.40;;;4.90;95.20;;;;;;4992498;28;20388;-65
2022/01/31 09:13:53;;;;;;;6.43;1.70;;;5.10;94.90;;;;;;4992293;28;20178;-64
2022/01/31 09:16:19;;;;;;;5.60;1.93;;;5.10;94.20;;;;;;4992158;28;20512;-64
2022/01/31 09:18:45;;;;;;;4.20;1.93;;;4.90;93.90;;;;;;4974455;28;20196;-66
2022/01/31 09:21:11;;;;;;;4.43;1.77;;;4.90;94.40;;;;;;4992105;28;20291;-64
2022/01/31 09:23:37;;;;;;;306.63;25.87;;;5.00;94.20;;;;;;4991974;28;20255;-64
2022/01/31 09:26:04;;;;;;;23.13;2.90;;;5.10;94.50;;;;;;4992032;28;20280;-64
2022/01/31 09:28:30;;;;;;;4.57;1.90;;;5.10;94.30;;;;;;4992311;28;20689;-64
2022/01/31 09:30:56;;;;;;;5.47;1.80;;;5.00;93.60;;;;;;4957740;28;20210;-64
2022/01/31 09:33:22;;;;;;;12.10;1.70;;;5.00;93.20;;;;;;4974631;28;20190;-65
2022/01/31 09:35:48;;;;;;;3.17;1.20;;;5.10;92.40;;;;;;4974307;28;20242;-65
2022/01/31 09:38:18;;;;;;;16.03;1.57;;;5.10;92.50;;;;;;4974207;28;20290;-63
2022/01/31 09:40:44;;;;;;;5.27;1.53;;;5.30;92.00;;;;;;4991208;28;20226;-63
2022/01/31 09:48:41;;;;;;;3.93;1.33;;;5.70;90.40;;;;;;4991673;28;20209;-64
2022/01/31 09:51:10;;;;;;;2.33;1.20;;;5.60;90.40;;;;;;4988525;28;20230;-64
2022/01/31 09:53:54;;;;;;;16.57;2.80;;;5.60;90.80;;;;;;4990882;28;20252;-63
2022/01/31 09:56:37;;;;;;;14.13;1.90;;;5.40;90.60;;;;;;4991335;28;20230;-64
2022/01/31 09:59:04;;;;;;;7.43;1.97;;;5.30;90.50;;;;;;4991339;28;20183;-64
2022/01/31 10:01:33;;;;;;;4.23;1.73;;;5.20;90.40;;;;;;4990880;28;20594;-64
2022/01/31 10:04:09;;;;;;;6.90;1.80;;;5.20;89.70;;;;;;4991001;28;20399;-64
2022/01/31 10:06:37;;;;;;;6.00;1.93;;;5.00;89.00;;;;;;4990918;28;20570;-64
2022/01/31 10:09:13;;;;;;;3.23;1.00;;;5.00;87.30;;;;;;4990873;28;20204;-63
2022/01/31 10:12:22;;;;;;;5.50;1.53;;;4.90;85.80;;;;;;4990955;28;20198;-63
2022/01/31 10:17:41;;;;;;;5.20;1.37;;;5.20;84.50;;;;;;4994606;28;20202;-62
2022/01/31 10:20:09;;;;;;;3.40;1.50;;;5.20;85.20;;;;;;4977173;28;21023;-62
2022/01/31 10:22:44;;;;;;;3.87;1.60;;;5.40;84.00;;;;;;4994740;28;20183;-64
2022/01/31 10:25:13;;;;;;;8.63;2.20;;;5.60;83.80;;;;;;4995092;28;20167;-64
2022/01/31 10:27:47;;;;;;;4.30;1.43;;;5.80;85.40;;;;;;4994885;28;20516;-63
2022/01/31 10:30:19;;;;;;;8.67;1.87;;;5.80;84.30;;;;;;4995038;28;20197;-64
2022/01/31 10:32:47;;;;;;;15.93;2.60;;;5.80;85.00;;;;;;4994541;28;20187;-64
2022/01/31 10:35:16;;;;;;;2.53;0.80;;;6.10;86.80;;;;;;4995006;28;20172;-62
2022/01/31 10:37:42;;;;;;;6.30;1.23;;;5.90;83.70;;;;;;4995204;28;20215;-63
2022/01/31 10:51:56;;;;;;;7.40;1.50;;;5.40;86.30;;;;;;4994501;28;20304;-62
2022/01/31 10:57:00;;;;;;;12.73;4.37;;;5.40;87.90;;;;;;4994222;28;20174;-63
2022/01/31 10:59:33;;;;;;;7.83;2.10;;;5.70;87.50;;;;;;4994070;28;20276;-63
2022/01/31 11:02:01;;;;;;;5.07;1.27;;;6.10;87.10;;;;;;4993940;28;20185;-64
2022/01/31 11:04:41;;;;;;;3.07;1.20;;;5.90;83.30;;;;;;4993671;28;20213;-63
2022/01/31 11:07:13;;;;;;;5.63;1.40;;;5.60;82.60;;;;;;4994035;28;20227;-65
2022/01/31 11:09:41;;;;;;;5.60;1.43;;;5.30;82.40;;;;;;4993776;28;20203;-63
2022/01/31 11:12:08;;;;;;;13.23;1.50;;;5.20;82.00;;;;;;4976064;28;20206;-63
2022/01/31 11:14:36;;;;;;;8.20;1.50;;;5.20;82.90;;;;;;4994001;28;20218;-64
2022/01/31 11:17:10;;;;;;;3.60;1.37;;;5.20;83.60;;;;;;4994497;28;20181;-63
2022/01/31 11:19:37;;;;;;;6.37;1.90;;;5.10;82.00;;;;;;4976372;28;20239;-64
2022/01/31 11:22:11;;;;;;;3.40;1.50;;;5.10;82.90;;;;;;4993799;28;20245;-63
2022/01/31 11:24:46;;;;;;;4.07;1.40;;;4.90;84.00;;;;;;4993980;28;20161;-65
2022/01/31 11:27:15;;;;;;;5.90;1.40;;;4.90;83.70;;;;;;4992819;28;20224;-64
2022/01/31 11:29:44;;;;;;;5.53;1.70;;;4.80;83.80;;;;;;4993984;28;20604;-64
2022/01/31 11:32:11;;;;;;;32.77;3.53;;;5.00;85.00;;;;;;4975553;28;20649;-64
2022/01/31 11:34:40;;;;;;;9.20;2.10;;;5.20;84.40;;;;;;4976449;28;20513;-63
2022/01/31 11:37:09;;;;;;;10.00;1.63;;;5.30;83.50;;;;;;4993808;28;20214;-64
2022/01/31 11:39:36;;;;;;;4.30;1.60;;;5.30;83.10;;;;;;4993850;28;20197;-63
2022/01/31 11:42:03;;;;;;;5.90;1.60;;;5.50;83.10;;;;;;4994101;28;20198;-63
2022/01/31 11:44:33;;;;;;;10.07;1.80;;;5.50;83.10;;;;;;4994646;28;20186;-64
2022/01/31 11:47:03;;;;;;;12.97;2.00;;;5.60;83.10;;;;;;4993792;28;20274;-63
2022/01/31 11:49:46;;;;;;;13.47;2.30;;;5.60;83.50;;;;;;4993753;28;20203;-63
2022/01/31 11:52:12;;;;;;;10.90;2.77;;;5.50;83.20;;;;;;4993090;28;20269;-65
2022/01/31 11:54:57;;;;;;;5.27;1.97;;;5.60;84.00;;;;;;4992853;28;20689;-63
2022/01/31 11:57:28;;;;;;;8.57;2.33;;;6.00;82.50;;;;;;4976317;28;20527;-64
2022/01/31 11:59:57;;;;;;;17.90;4.00;;;6.20;82.20;;;;;;4993160;28;20206;-67
2022/01/31 12:02:25;;;;;;;8.73;3.23;;;6.30;82.40;;;;;;4993444;28;20180;-64
2022/01/31 12:04:52;;;;;;;26.33;4.50;;;6.40;82.40;;;;;;4975882;28;20203;-64
2022/01/31 12:07:38;;;;;;;11.37;2.10;;;6.70;83.20;;;;;;4993469;28;20267;-65
2022/01/31 12:10:09;;;;;;;13.07;2.37;;;6.70;79.90;;;;;;4992688;28;20204;-64
2022/01/31 12:24:28;;;;;;;21.93;2.60;;;5.90;81.20;;;;;;4973140;28;20410;-63
2022/01/31 12:27:05;;;;;;;15.53;2.23;;;5.80;80.20;;;;;;4973766;28;20199;-68
2022/01/31 12:29:34;;;;;;;6.37;1.80;;;6.30;81.00;;;;;;4973764;28;20197;-65
2022/01/31 12:32:21;;;;;;;9.40;1.90;;;7.50;77.30;;;;;;4973279;28;20181;-64
2022/01/31 12:34:51;;;;;;;8.90;2.03;;;8.50;74.00;;;;;;4973557;28;20633;-64
2022/01/31 12:37:23;;;;;;;9.97;1.77;;;9.00;71.50;;;;;;4973308;28;20239;-64
2022/01/31 12:40:01;;;;;;;9.33;2.33;;;9.20;69.30;;;;;;4978999;28;20175;-66
2022/01/31 12:45:30;;;;;;;8.40;2.20;;;9.50;65.80;;;;;;5012028;28;20173;-65
2022/01/31 12:48:08;;;;;;;18.80;2.67;;;10.60;64.10;;;;;;5012010;28;20280;-67
2022/01/31 12:50:59;;;;;;;9.83;2.37;;;10.30;61.10;;;;;;5011999;28;20318;-65
2022/01/31 12:56:13;;;;;;;5.67;1.80;;;10.70;58.10;;;;;;5011722;28;20236;-64
2022/01/31 12:58:44;;;;;;;12.03;1.90;;;9.70;58.80;;;;;;4994780;28;20183;-63
2022/01/31 13:01:12;;;;;;;7.30;2.00;;;8.70;60.90;;;;;;5011673;28;20234;-63
2022/01/31 13:03:40;;;;;;;9.13;1.83;;;7.80;62.10;;;;;;5006396;28;20260;-63
2022/01/31 13:06:32;;;;;;;11.33;1.80;;;6.60;64.20;;;;;;4992851;28;20202;-63
2022/01/31 13:09:04;;;;;;;10.67;2.37;;;6.10;67.00;;;;;;5009758;28;20196;-63
2022/01/31 13:11:32;;;;;;;11.73;2.53;;;5.90;68.70;;;;;;4992604;28;20214;-62
2022/01/31 13:14:18;;;;;;;10.55;2.90;;;5.70;68.70;;;;;;5010039;28;20417;-63
2022/01/31 13:16:47;;;;;;;10.83;2.10;;;5.60;68.60;;;;;;5010965;28;20680;-61
2022/01/31 13:19:14;;;;;;;17.93;3.33;;;5.60;68.60;;;;;;5011221;28;20204;-62
2022/01/31 13:21:41;;;;;;;11.67;2.47;;;5.70;69.30;;;;;;5006530;28;20206;-62
2022/01/31 13:24:08;;;;;;;11.30;3.70;;;5.70;69.00;;;;;;4986216;28;20282;-62
2022/01/31 13:26:53;;;;;;;7.97;2.80;;;5.30;69.20;;;;;;4998641;28;20204;-62
2022/01/31 13:29:41;;;;;;;5.13;2.00;;;5.20;69.90;;;;;;4991842;28;20197;-61
2022/01/31 13:32:25;;;;;;;13.57;3.13;;;5.30;70.60;;;;;;5001580;28;20192;-64
2022/01/31 13:34:57;;;;;;;7.23;2.40;;;5.50;71.50;;;;;;5006057;28;20200;-62
2022/01/31 13:37:35;;;;;;;13.00;2.57;;;5.40;70.70;;;;;;4983450;28;20186;-64
2022/01/31 13:40:11;;;;;;;6.17;2.37;;;5.40;70.50;;;;;;5008164;28;20200;-66
2022/01/31 13:42:38;;;;;;;5.07;2.10;;;6.10;70.00;;;;;;5017123;28;20701;-64
2022/01/31 13:45:15;;;;;;;19.80;3.83;;;7.90;66.70;;;;;;5003848;28;20215;-65
2022/01/31 13:50:24;;;;;;;6.07;1.87;;;10.00;59.90;;;;;;5001961;28;20225;-63
2022/01/31 13:53:00;;;;;;;15.83;4.40;;;11.00;58.10;;;;;;5006849;28;20275;-64